sensor_id;sensor_type;location;lat;lon;timestamp;P1;durP1;ratioP1;P2;durP2;ratioP2
76848;SDS011;65814;51.134;16.980;2023-06-14T00:02:03;5.10;;;4.60;;
76848;SDS011;65814;51.134;16.980;2023-06-14T00:04:32;6.60;;;5.00;;
76848;SDS011;65814;51.134;16.980;2023-06-14T00:07:00;6.70;;;5.60;;
76848;SDS011;65814;51.134;16.980;2023-06-14T00:09:31;5.90;;;4.90;;
76848;SDS011;65814;51.134;16.980;2023-06-14T00:11:59;6.20;;;4.40;;
76848;SDS011;65814;51.134;16.980;2023-06-14T00:14:27;8.00;;;4.20;;
76848;SDS011;65814;51.134;16.980;2023-06-14T00:16:55;5.60;;;4.60;;
76848;SDS011;65814;51.134;16.980;2023-06-14T00:19:27;6.00;;;4.70;;
76848;SDS011;65814;51.134;16.980;2023-06-14T00:21:54;7.30;;;4.60;;
76848;SDS011;65814;51.134;16.980;2023-06-14T00:24:25;6.20;;;4.60;;
76848;SDS011;65814;51.134;16.980;2023-06-14T00:26:53;7.10;;;4.80;;
76848;SDS011;65814;51.134;16.980;2023-06-14T00:29:23;6.30;;;4.50;;
76848;SDS011;65814;51.134;16.980;2023-06-14T00:31:50;6.30;;;5.40;;
76848;SDS011;65814;51.134;16.980;2023-06-14T00:34:18;5.80;;;5.20;;
76848;SDS011;65814;51.134;16.980;2023-06-14T00:36:46;6.80;;;4.90;;
76848;SDS011;65814;51.134;16.980;2023-06-14T00:39:14;5.40;;;4.60;;
76848;SDS011;65814;51.134;16.980;2023-06-14T00:41:42;5.60;;;4.30;;
76848;SDS011;65814;51.134;16.980;2023-06-14T00:44:10;5.90;;;5.00;;
76848;SDS011;65814;51.134;16.980;2023-06-14T00:46:39;5.70;;;4.60;;
76848;SDS011;65814;51.134;16.980;2023-06-14T00:49:08;5.60;;;4.40;;
76848;SDS011;65814;51.134;16.980;2023-06-14T00:51:36;5.30;;;4.40;;
76848;SDS011;65814;51.134;16.980;2023-06-14T00:54:05;6.70;;;4.20;;
76848;SDS011;65814;51.134;16.980;2023-06-14T00:56:32;6.70;;;4.30;;
76848;SDS011;65814;51.134;16.980;2023-06-14T00:59:00;5.60;;;4.50;;
76848;SDS011;65814;51.134;16.980;2023-06-14T01:01:33;5.30;;;4.30;;
76848;SDS011;65814;51.134;16.980;2023-06-14T01:04:01;5.20;;;4.20;;
76848;SDS011;65814;51.134;16.980;2023-06-14T01:06:42;5.60;;;4.40;;
76848;SDS011;65814;51.134;16.980;2023-06-14T01:09:21;6.70;;;4.70;;
76848;SDS011;65814;51.134;16.980;2023-06-14T01:12:00;6.20;;;4.50;;
76848;SDS011;65814;51.134;16.980;2023-06-14T01:14:35;6.80;;;5.00;;
76848;SDS011;65814;51.134;16.980;2023-06-14T01:17:04;5.70;;;4.50;;
76848;SDS011;65814;51.134;16.980;2023-06-14T01:19:32;5.70;;;4.60;;
76848;SDS011;65814;51.134;16.980;2023-06-14T01:22:01;5.40;;;4.20;;
76848;SDS011;65814;51.134;16.980;2023-06-14T01:24:29;5.50;;;4.50;;
76848;SDS011;65814;51.134;16.980;2023-06-14T01:27:01;5.20;;;4.20;;
76848;SDS011;65814;51.134;16.980;2023-06-14T01:29:30;5.80;;;4.40;;
76848;SDS011;65814;51.134;16.980;2023-06-14T01:32:00;7.50;;;4.80;;
76848;SDS011;65814;51.134;16.980;2023-06-14T01:34:29;5.20;;;4.10;;
76848;SDS011;65814;51.134;16.980;2023-06-14T01:36:56;5.70;;;5.10;;
76848;SDS011;65814;51.134;16.980;2023-06-14T01:39:25;6.70;;;4.50;;
76848;SDS011;65814;51.134;16.980;2023-06-14T01:41:53;6.00;;;4.80;;
76848;SDS011;65814;51.134;16.980;2023-06-14T01:44:21;6.20;;;5.10;;
76848;SDS011;65814;51.134;16.980;2023-06-14T01:46:50;5.50;;;4.90;;
76848;SDS011;65814;51.134;16.980;2023-06-14T01:49:18;5.80;;;4.90;;
76848;SDS011;65814;51.134;16.980;2023-06-14T01:51:46;6.40;;;4.60;;
76848;SDS011;65814;51.134;16.980;2023-06-14T01:54:14;5.50;;;4.70;;
76848;SDS011;65814;51.134;16.980;2023-06-14T01:56:42;5.30;;;4.40;;
76848;SDS011;65814;51.134;16.980;2023-06-14T01:59:10;5.30;;;4.60;;
76848;SDS011;65814;51.134;16.980;2023-06-14T02:01:38;7.90;;;5.40;;
76848;SDS011;65814;51.134;16.980;2023-06-14T02:04:06;9.90;;;5.70;;
76848;SDS011;65814;51.134;16.980;2023-06-14T02:06:33;5.60;;;4.80;;
76848;SDS011;65814;51.134;16.980;2023-06-14T02:09:02;6.20;;;4.80;;
76848;SDS011;65814;51.134;16.980;2023-06-14T02:11:30;6.70;;;5.70;;
76848;SDS011;65814;51.134;16.980;2023-06-14T02:13:58;5.40;;;4.20;;
76848;SDS011;65814;51.134;16.980;2023-06-14T02:16:28;6.00;;;4.60;;
76848;SDS011;65814;51.134;16.980;2023-06-14T02:18:57;5.50;;;4.90;;
76848;SDS011;65814;51.134;16.980;2023-06-14T02:21:28;7.10;;;4.70;;
76848;SDS011;65814;51.134;16.980;2023-06-14T02:23:56;6.20;;;4.80;;
76848;SDS011;65814;51.134;16.980;2023-06-14T02:26:25;6.20;;;4.70;;
76848;SDS011;65814;51.134;16.980;2023-06-14T02:28:56;5.70;;;4.50;;
76848;SDS011;65814;51.134;16.980;2023-06-14T02:31:24;7.30;;;5.50;;
76848;SDS011;65814;51.134;16.980;2023-06-14T02:33:52;8.90;;;5.50;;
76848;SDS011;65814;51.134;16.980;2023-06-14T02:36:20;6.30;;;5.00;;
76848;SDS011;65814;51.134;16.980;2023-06-14T02:38:48;6.30;;;4.70;;
76848;SDS011;65814;51.134;16.980;2023-06-14T02:41:16;5.20;;;4.30;;
76848;SDS011;65814;51.134;16.980;2023-06-14T02:43:44;5.60;;;4.90;;
76848;SDS011;65814;51.134;16.980;2023-06-14T02:46:12;6.30;;;4.80;;
76848;SDS011;65814;51.134;16.980;2023-06-14T02:48:40;6.40;;;5.10;;
76848;SDS011;65814;51.134;16.980;2023-06-14T02:51:08;6.90;;;5.00;;
76848;SDS011;65814;51.134;16.980;2023-06-14T02:53:37;6.90;;;4.70;;
76848;SDS011;65814;51.134;16.980;2023-06-14T02:56:04;6.30;;;4.50;;
76848;SDS011;65814;51.134;16.980;2023-06-14T02:58:32;5.90;;;4.60;;
76848;SDS011;65814;51.134;16.980;2023-06-14T03:01:00;6.20;;;4.50;;
76848;SDS011;65814;51.134;16.980;2023-06-14T03:03:31;5.80;;;5.10;;
76848;SDS011;65814;51.134;16.980;2023-06-14T03:05:59;5.50;;;4.70;;
76848;SDS011;65814;51.134;16.980;2023-06-14T03:08:32;6.30;;;4.40;;
76848;SDS011;65814;51.134;16.980;2023-06-14T03:11:06;6.20;;;5.60;;
76848;SDS011;65814;51.134;16.980;2023-06-14T03:13:36;7.50;;;5.50;;
76848;SDS011;65814;51.134;16.980;2023-06-14T03:16:06;9.40;;;4.80;;
76848;SDS011;65814;51.134;16.980;2023-06-14T03:18:34;7.70;;;4.50;;
76848;SDS011;65814;51.134;16.980;2023-06-14T03:21:03;5.70;;;5.00;;
76848;SDS011;65814;51.134;16.980;2023-06-14T03:23:32;7.60;;;6.00;;
76848;SDS011;65814;51.134;16.980;2023-06-14T03:26:00;6.30;;;5.60;;
76848;SDS011;65814;51.134;16.980;2023-06-14T03:28:28;9.50;;;5.50;;
76848;SDS011;65814;51.134;16.980;2023-06-14T03:30:55;8.20;;;6.70;;
76848;SDS011;65814;51.134;16.980;2023-06-14T03:33:23;5.90;;;5.30;;
76848;SDS011;65814;51.134;16.980;2023-06-14T03:35:52;5.90;;;4.80;;
76848;SDS011;65814;51.134;16.980;2023-06-14T03:38:20;6.60;;;4.80;;
76848;SDS011;65814;51.134;16.980;2023-06-14T03:40:48;6.90;;;4.80;;
76848;SDS011;65814;51.134;16.980;2023-06-14T03:43:16;7.20;;;5.10;;
76848;SDS011;65814;51.134;16.980;2023-06-14T03:45:44;9.60;;;5.30;;
76848;SDS011;65814;51.134;16.980;2023-06-14T03:48:12;7.10;;;5.50;;
76848;SDS011;65814;51.134;16.980;2023-06-14T03:50:40;10.20;;;5.90;;
76848;SDS011;65814;51.134;16.980;2023-06-14T03:53:10;7.30;;;5.80;;
76848;SDS011;65814;51.134;16.980;2023-06-14T03:55:38;8.70;;;6.10;;
76848;SDS011;65814;51.134;16.980;2023-06-14T03:58:23;8.00;;;5.40;;
76848;SDS011;65814;51.134;16.980;2023-06-14T04:00:51;7.90;;;5.70;;
76848;SDS011;65814;51.134;16.980;2023-06-14T04:03:19;8.00;;;6.10;;
76848;SDS011;65814;51.134;16.980;2023-06-14T04:05:47;8.60;;;5.60;;
76848;SDS011;65814;51.134;16.980;2023-06-14T04:08:17;6.80;;;5.50;;
76848;SDS011;65814;51.134;16.980;2023-06-14T04:10:47;6.90;;;5.30;;
76848;SDS011;65814;51.134;16.980;2023-06-14T04:13:15;8.90;;;5.40;;
76848;SDS011;65814;51.134;16.980;2023-06-14T04:15:43;6.90;;;5.10;;
76848;SDS011;65814;51.134;16.980;2023-06-14T04:18:13;7.00;;;5.40;;
76848;SDS011;65814;51.134;16.980;2023-06-14T04:20:41;7.80;;;5.40;;
76848;SDS011;65814;51.134;16.980;2023-06-14T04:23:12;8.70;;;6.30;;
76848;SDS011;65814;51.134;16.980;2023-06-14T04:25:41;6.80;;;5.00;;
76848;SDS011;65814;51.134;16.980;2023-06-14T04:28:13;7.20;;;5.60;;
76848;SDS011;65814;51.134;16.980;2023-06-14T04:30:43;7.00;;;5.00;;
76848;SDS011;65814;51.134;16.980;2023-06-14T04:33:12;7.10;;;5.70;;
76848;SDS011;65814;51.134;16.980;2023-06-14T04:35:40;8.10;;;5.60;;
76848;SDS011;65814;51.134;16.980;2023-06-14T04:38:09;7.20;;;5.10;;
76848;SDS011;65814;51.134;16.980;2023-06-14T04:40:37;7.20;;;5.70;;
76848;SDS011;65814;51.134;16.980;2023-06-14T04:43:10;7.90;;;6.70;;
76848;SDS011;65814;51.134;16.980;2023-06-14T04:45:44;7.80;;;6.20;;
76848;SDS011;65814;51.134;16.980;2023-06-14T04:48:14;6.80;;;5.30;;
76848;SDS011;65814;51.134;16.980;2023-06-14T04:50:42;7.60;;;5.90;;
76848;SDS011;65814;51.134;16.980;2023-06-14T04:53:10;7.90;;;6.10;;
76848;SDS011;65814;51.134;16.980;2023-06-14T04:55:39;7.70;;;6.60;;
76848;SDS011;65814;51.134;16.980;2023-06-14T04:58:08;8.00;;;5.50;;
76848;SDS011;65814;51.134;16.980;2023-06-14T05:00:36;8.10;;;6.30;;
76848;SDS011;65814;51.134;16.980;2023-06-14T05:03:04;7.70;;;5.40;;
76848;SDS011;65814;51.134;16.980;2023-06-14T05:05:33;7.40;;;6.00;;
76848;SDS011;65814;51.134;16.980;2023-06-14T05:08:01;8.70;;;6.70;;
76848;SDS011;65814;51.134;16.980;2023-06-14T05:10:29;9.90;;;6.00;;
76848;SDS011;65814;51.134;16.980;2023-06-14T05:12:57;8.80;;;6.70;;
76848;SDS011;65814;51.134;16.980;2023-06-14T05:15:25;8.20;;;6.60;;
76848;SDS011;65814;51.134;16.980;2023-06-14T05:17:54;8.90;;;7.00;;
76848;SDS011;65814;51.134;16.980;2023-06-14T05:20:24;9.70;;;6.80;;
76848;SDS011;65814;51.134;16.980;2023-06-14T05:22:54;8.80;;;6.90;;
76848;SDS011;65814;51.134;16.980;2023-06-14T05:25:22;8.10;;;7.20;;
76848;SDS011;65814;51.134;16.980;2023-06-14T05:27:50;11.10;;;7.50;;
76848;SDS011;65814;51.134;16.980;2023-06-14T05:30:18;8.90;;;7.30;;
76848;SDS011;65814;51.134;16.980;2023-06-14T05:32:46;10.70;;;7.40;;
76848;SDS011;65814;51.134;16.980;2023-06-14T05:35:14;9.60;;;7.80;;
76848;SDS011;65814;51.134;16.980;2023-06-14T05:37:42;10.90;;;7.40;;
76848;SDS011;65814;51.134;16.980;2023-06-14T05:40:10;11.00;;;7.40;;
76848;SDS011;65814;51.134;16.980;2023-06-14T05:42:38;9.70;;;7.00;;
76848;SDS011;65814;51.134;16.980;2023-06-14T05:45:06;12.60;;;7.50;;
76848;SDS011;65814;51.134;16.980;2023-06-14T05:47:35;11.50;;;8.70;;
76848;SDS011;65814;51.134;16.980;2023-06-14T05:50:03;11.10;;;8.80;;
76848;SDS011;65814;51.134;16.980;2023-06-14T05:52:31;12.30;;;8.40;;
76848;SDS011;65814;51.134;16.980;2023-06-14T05:54:59;10.50;;;9.00;;
76848;SDS011;65814;51.134;16.980;2023-06-14T05:57:27;11.70;;;8.80;;
76848;SDS011;65814;51.134;16.980;2023-06-14T05:59:55;12.60;;;9.10;;
76848;SDS011;65814;51.134;16.980;2023-06-14T06:02:23;11.00;;;8.70;;
76848;SDS011;65814;51.134;16.980;2023-06-14T06:04:51;12.40;;;9.30;;
76848;SDS011;65814;51.134;16.980;2023-06-14T06:07:19;15.70;;;10.80;;
76848;SDS011;65814;51.134;16.980;2023-06-14T06:09:47;10.30;;;9.10;;
76848;SDS011;65814;51.134;16.980;2023-06-14T06:12:15;12.00;;;8.50;;
76848;SDS011;65814;51.134;16.980;2023-06-14T06:14:43;12.50;;;8.60;;
76848;SDS011;65814;51.134;16.980;2023-06-14T06:17:11;11.70;;;8.80;;
76848;SDS011;65814;51.134;16.980;2023-06-14T06:19:39;14.60;;;8.90;;
76848;SDS011;65814;51.134;16.980;2023-06-14T06:22:07;11.90;;;8.50;;
76848;SDS011;65814;51.134;16.980;2023-06-14T06:24:35;11.80;;;9.10;;
76848;SDS011;65814;51.134;16.980;2023-06-14T06:27:03;18.70;;;10.90;;
76848;SDS011;65814;51.134;16.980;2023-06-14T06:29:31;11.50;;;8.20;;
76848;SDS011;65814;51.134;16.980;2023-06-14T06:31:59;13.20;;;9.50;;
76848;SDS011;65814;51.134;16.980;2023-06-14T06:34:28;13.10;;;9.70;;
76848;SDS011;65814;51.134;16.980;2023-06-14T06:36:55;12.70;;;9.80;;
76848;SDS011;65814;51.134;16.980;2023-06-14T06:39:23;12.70;;;9.00;;
76848;SDS011;65814;51.134;16.980;2023-06-14T06:41:51;14.50;;;11.00;;
76848;SDS011;65814;51.134;16.980;2023-06-14T06:44:19;14.00;;;11.30;;
76848;SDS011;65814;51.134;16.980;2023-06-14T06:46:47;15.10;;;11.80;;
76848;SDS011;65814;51.134;16.980;2023-06-14T06:49:15;16.00;;;11.40;;
76848;SDS011;65814;51.134;16.980;2023-06-14T06:51:58;15.80;;;11.60;;
76848;SDS011;65814;51.134;16.980;2023-06-14T06:54:28;14.20;;;10.30;;
76848;SDS011;65814;51.134;16.980;2023-06-14T06:56:56;15.80;;;10.40;;
76848;SDS011;65814;51.134;16.980;2023-06-14T06:59:24;15.30;;;11.00;;
76848;SDS011;65814;51.134;16.980;2023-06-14T07:01:52;15.20;;;10.70;;
76848;SDS011;65814;51.134;16.980;2023-06-14T07:04:21;13.50;;;10.20;;
76848;SDS011;65814;51.134;16.980;2023-06-14T07:06:49;14.50;;;10.30;;
76848;SDS011;65814;51.134;16.980;2023-06-14T07:09:17;19.00;;;11.30;;
76848;SDS011;65814;51.134;16.980;2023-06-14T07:11:47;15.20;;;10.90;;
76848;SDS011;65814;51.134;16.980;2023-06-14T07:14:15;14.30;;;10.30;;
76848;SDS011;65814;51.134;16.980;2023-06-14T07:16:43;14.50;;;9.90;;
76848;SDS011;65814;51.134;16.980;2023-06-14T07:19:11;16.60;;;12.30;;
76848;SDS011;65814;51.134;16.980;2023-06-14T07:21:39;15.00;;;10.30;;
76848;SDS011;65814;51.134;16.980;2023-06-14T07:24:07;18.40;;;10.50;;
76848;SDS011;65814;51.134;16.980;2023-06-14T07:26:35;16.90;;;10.40;;
76848;SDS011;65814;51.134;16.980;2023-06-14T07:29:03;15.60;;;10.90;;
76848;SDS011;65814;51.134;16.980;2023-06-14T07:31:31;16.20;;;11.00;;
76848;SDS011;65814;51.134;16.980;2023-06-14T07:33:59;15.50;;;10.60;;
76848;SDS011;65814;51.134;16.980;2023-06-14T07:36:28;15.80;;;11.20;;
76848;SDS011;65814;51.134;16.980;2023-06-14T07:38:56;17.00;;;12.10;;
76848;SDS011;65814;51.134;16.980;2023-06-14T07:41:24;16.10;;;10.90;;
76848;SDS011;65814;51.134;16.980;2023-06-14T07:43:52;15.10;;;10.50;;
76848;SDS011;65814;51.134;16.980;2023-06-14T07:46:20;14.70;;;10.40;;
76848;SDS011;65814;51.134;16.980;2023-06-14T07:48:48;12.90;;;9.30;;
76848;SDS011;65814;51.134;16.980;2023-06-14T07:51:16;11.80;;;9.70;;
76848;SDS011;65814;51.134;16.980;2023-06-14T07:53:44;11.70;;;9.70;;
76848;SDS011;65814;51.134;16.980;2023-06-14T07:56:12;9.90;;;8.50;;
76848;SDS011;65814;51.134;16.980;2023-06-14T07:58:40;10.40;;;8.90;;
76848;SDS011;65814;51.134;16.980;2023-06-14T08:01:08;12.10;;;8.10;;
76848;SDS011;65814;51.134;16.980;2023-06-14T08:03:36;12.60;;;10.60;;
76848;SDS011;65814;51.134;16.980;2023-06-14T08:06:05;10.70;;;7.60;;
76848;SDS011;65814;51.134;16.980;2023-06-14T08:08:34;10.10;;;8.90;;
76848;SDS011;65814;51.134;16.980;2023-06-14T08:11:02;10.60;;;8.10;;
76848;SDS011;65814;51.134;16.980;2023-06-14T08:13:29;10.50;;;8.20;;
76848;SDS011;65814;51.134;16.980;2023-06-14T08:15:57;12.00;;;9.20;;
76848;SDS011;65814;51.134;16.980;2023-06-14T08:18:26;11.70;;;8.10;;
76848;SDS011;65814;51.134;16.980;2023-06-14T08:20:54;14.10;;;10.30;;
76848;SDS011;65814;51.134;16.980;2023-06-14T08:23:22;13.80;;;11.90;;
76848;SDS011;65814;51.134;16.980;2023-06-14T08:25:49;12.40;;;9.00;;
76848;SDS011;65814;51.134;16.980;2023-06-14T08:28:17;13.20;;;8.60;;
76848;SDS011;65814;51.134;16.980;2023-06-14T08:30:45;11.30;;;7.70;;
76848;SDS011;65814;51.134;16.980;2023-06-14T08:33:13;9.90;;;8.10;;
76848;SDS011;65814;51.134;16.980;2023-06-14T08:35:44;10.90;;;9.30;;
76848;SDS011;65814;51.134;16.980;2023-06-14T08:38:12;13.60;;;9.20;;
76848;SDS011;65814;51.134;16.980;2023-06-14T08:40:40;12.90;;;8.90;;
76848;SDS011;65814;51.134;16.980;2023-06-14T08:43:10;13.50;;;9.80;;
76848;SDS011;65814;51.134;16.980;2023-06-14T08:45:38;15.20;;;11.60;;
76848;SDS011;65814;51.134;16.980;2023-06-14T08:48:06;12.10;;;9.60;;
76848;SDS011;65814;51.134;16.980;2023-06-14T08:50:35;9.20;;;8.00;;
76848;SDS011;65814;51.134;16.980;2023-06-14T08:53:06;10.40;;;7.90;;
76848;SDS011;65814;51.134;16.980;2023-06-14T08:55:38;10.70;;;7.60;;
76848;SDS011;65814;51.134;16.980;2023-06-14T08:58:10;10.60;;;8.00;;
76848;SDS011;65814;51.134;16.980;2023-06-14T09:00:42;9.40;;;7.70;;
76848;SDS011;65814;51.134;16.980;2023-06-14T09:03:11;10.10;;;7.30;;
76848;SDS011;65814;51.134;16.980;2023-06-14T09:05:41;9.00;;;6.90;;
76848;SDS011;65814;51.134;16.980;2023-06-14T09:08:10;8.50;;;7.00;;
76848;SDS011;65814;51.134;16.980;2023-06-14T09:10:39;10.00;;;6.90;;
76848;SDS011;65814;51.134;16.980;2023-06-14T09:13:08;7.30;;;6.50;;
76848;SDS011;65814;51.134;16.980;2023-06-14T09:15:37;9.50;;;7.80;;
76848;SDS011;65814;51.134;16.980;2023-06-14T09:18:05;11.00;;;7.70;;
76848;SDS011;65814;51.134;16.980;2023-06-14T09:20:34;9.10;;;7.60;;
76848;SDS011;65814;51.134;16.980;2023-06-14T09:23:02;12.60;;;7.00;;
76848;SDS011;65814;51.134;16.980;2023-06-14T09:25:41;9.40;;;7.40;;
76848;SDS011;65814;51.134;16.980;2023-06-14T09:28:12;9.70;;;8.60;;
76848;SDS011;65814;51.134;16.980;2023-06-14T09:30:40;8.80;;;7.50;;
76848;SDS011;65814;51.134;16.980;2023-06-14T09:33:08;6.50;;;5.50;;
76848;SDS011;65814;51.134;16.980;2023-06-14T09:35:36;7.20;;;6.40;;
76848;SDS011;65814;51.134;16.980;2023-06-14T09:38:04;8.80;;;5.90;;
76848;SDS011;65814;51.134;16.980;2023-06-14T09:40:35;8.70;;;7.10;;
76848;SDS011;65814;51.134;16.980;2023-06-14T09:43:05;7.10;;;6.30;;
76848;SDS011;65814;51.134;16.980;2023-06-14T09:45:38;8.80;;;7.40;;
76848;SDS011;65814;51.134;16.980;2023-06-14T09:48:07;6.90;;;6.20;;
76848;SDS011;65814;51.134;16.980;2023-06-14T09:50:36;12.60;;;5.90;;
76848;SDS011;65814;51.134;16.980;2023-06-14T09:53:09;8.60;;;5.60;;
76848;SDS011;65814;51.134;16.980;2023-06-14T09:55:40;6.80;;;5.50;;
76848;SDS011;65814;51.134;16.980;2023-06-14T09:58:09;8.60;;;6.10;;
76848;SDS011;65814;51.134;16.980;2023-06-14T10:00:37;8.20;;;6.90;;
76848;SDS011;65814;51.134;16.980;2023-06-14T10:03:13;8.40;;;6.10;;
76848;SDS011;65814;51.134;16.980;2023-06-14T10:05:43;8.10;;;6.30;;
76848;SDS011;65814;51.134;16.980;2023-06-14T10:08:16;9.20;;;6.10;;
76848;SDS011;65814;51.134;16.980;2023-06-14T10:10:46;10.50;;;8.30;;
76848;SDS011;65814;51.134;16.980;2023-06-14T10:13:14;8.70;;;5.90;;
76848;SDS011;65814;51.134;16.980;2023-06-14T10:23:49;7.20;;;6.40;;
76848;SDS011;65814;51.134;16.980;2023-06-14T10:26:21;7.40;;;4.90;;
76848;SDS011;65814;51.134;16.980;2023-06-14T10:28:57;6.10;;;4.60;;
76848;SDS011;65814;51.134;16.980;2023-06-14T10:31:43;5.50;;;4.90;;
76848;SDS011;65814;51.134;16.980;2023-06-14T10:34:22;7.90;;;5.00;;
76848;SDS011;65814;51.134;16.980;2023-06-14T10:37:12;7.60;;;5.90;;
76848;SDS011;65814;51.134;16.980;2023-06-14T10:39:42;7.20;;;5.20;;
76848;SDS011;65814;51.134;16.980;2023-06-14T10:42:14;7.30;;;4.90;;
76848;SDS011;65814;51.134;16.980;2023-06-14T10:44:43;5.30;;;4.40;;
76848;SDS011;65814;51.134;16.980;2023-06-14T10:49:49;6.10;;;5.50;;
76848;SDS011;65814;51.134;16.980;2023-06-14T10:52:20;6.40;;;4.30;;
76848;SDS011;65814;51.134;16.980;2023-06-14T10:57:35;4.90;;;4.40;;
76848;SDS011;65814;51.134;16.980;2023-06-14T11:10:52;7.10;;;4.70;;
76848;SDS011;65814;51.134;16.980;2023-06-14T11:13:23;7.30;;;5.50;;
76848;SDS011;65814;51.134;16.980;2023-06-14T11:15:52;6.50;;;4.70;;
76848;SDS011;65814;51.134;16.980;2023-06-14T11:18:21;6.30;;;5.70;;
76848;SDS011;65814;51.134;16.980;2023-06-14T11:20:52;6.20;;;4.10;;
76848;SDS011;65814;51.134;16.980;2023-06-14T11:23:21;5.50;;;4.50;;
76848;SDS011;65814;51.134;16.980;2023-06-14T11:25:52;6.60;;;4.60;;
76848;SDS011;65814;51.134;16.980;2023-06-14T11:28:20;6.30;;;4.60;;
76848;SDS011;65814;51.134;16.980;2023-06-14T11:30:59;6.10;;;4.50;;
76848;SDS011;65814;51.134;16.980;2023-06-14T11:33:28;6.20;;;4.20;;
76848;SDS011;65814;51.134;16.980;2023-06-14T11:35:56;5.90;;;4.10;;
76848;SDS011;65814;51.134;16.980;2023-06-14T11:38:25;6.30;;;5.50;;
76848;SDS011;65814;51.134;16.980;2023-06-14T11:40:58;6.40;;;4.60;;
76848;SDS011;65814;51.134;16.980;2023-06-14T11:43:26;7.10;;;4.50;;
76848;SDS011;65814;51.134;16.980;2023-06-14T11:45:54;5.40;;;3.80;;
76848;SDS011;65814;51.134;16.980;2023-06-14T11:48:41;5.20;;;4.10;;
76848;SDS011;65814;51.134;16.980;2023-06-14T11:51:10;7.20;;;4.40;;
76848;SDS011;65814;51.134;16.980;2023-06-14T11:53:38;5.80;;;4.00;;
76848;SDS011;65814;51.134;16.980;2023-06-14T11:56:06;7.50;;;3.90;;
76848;SDS011;65814;51.134;16.980;2023-06-14T11:58:34;5.20;;;4.20;;
76848;SDS011;65814;51.134;16.980;2023-06-14T12:01:03;4.70;;;4.20;;
76848;SDS011;65814;51.134;16.980;2023-06-14T12:03:31;7.30;;;4.00;;
76848;SDS011;65814;51.134;16.980;2023-06-14T12:06:09;4.80;;;4.10;;
76848;SDS011;65814;51.134;16.980;2023-06-14T12:08:37;4.50;;;3.90;;
76848;SDS011;65814;51.134;16.980;2023-06-14T12:11:11;7.00;;;4.20;;
76848;SDS011;65814;51.134;16.980;2023-06-14T12:13:41;4.90;;;3.90;;
76848;SDS011;65814;51.134;16.980;2023-06-14T12:16:10;5.70;;;4.30;;
76848;SDS011;65814;51.134;16.980;2023-06-14T12:18:40;6.50;;;4.80;;
76848;SDS011;65814;51.134;16.980;2023-06-14T12:21:09;4.10;;;3.60;;
76848;SDS011;65814;51.134;16.980;2023-06-14T12:23:38;6.20;;;4.10;;
76848;SDS011;65814;51.134;16.980;2023-06-14T12:26:13;5.10;;;4.50;;
76848;SDS011;65814;51.134;16.980;2023-06-14T12:28:45;4.80;;;4.20;;
76848;SDS011;65814;51.134;16.980;2023-06-14T12:31:14;4.90;;;4.30;;
76848;SDS011;65814;51.134;16.980;2023-06-14T12:33:44;6.90;;;4.10;;
76848;SDS011;65814;51.134;16.980;2023-06-14T12:36:13;4.90;;;4.30;;
76848;SDS011;65814;51.134;16.980;2023-06-14T12:38:42;6.70;;;4.50;;
76848;SDS011;65814;51.134;16.980;2023-06-14T12:41:10;5.10;;;4.20;;
76848;SDS011;65814;51.134;16.980;2023-06-14T12:43:38;6.90;;;4.60;;
76848;SDS011;65814;51.134;16.980;2023-06-14T12:46:06;8.80;;;5.30;;
76848;SDS011;65814;51.134;16.980;2023-06-14T12:48:34;6.60;;;5.20;;
76848;SDS011;65814;51.134;16.980;2023-06-14T12:51:02;6.10;;;4.80;;
76848;SDS011;65814;51.134;16.980;2023-06-14T12:53:30;8.30;;;4.90;;
76848;SDS011;65814;51.134;16.980;2023-06-14T12:55:58;7.10;;;4.80;;
76848;SDS011;65814;51.134;16.980;2023-06-14T12:58:26;5.80;;;5.00;;
76848;SDS011;65814;51.134;16.980;2023-06-14T13:00:54;5.50;;;5.00;;
76848;SDS011;65814;51.134;16.980;2023-06-14T13:03:22;6.10;;;5.20;;
76848;SDS011;65814;51.134;16.980;2023-06-14T13:05:50;5.30;;;4.70;;
76848;SDS011;65814;51.134;16.980;2023-06-14T13:08:18;8.50;;;5.00;;
76848;SDS011;65814;51.134;16.980;2023-06-14T13:10:51;11.00;;;5.60;;
76848;SDS011;65814;51.134;16.980;2023-06-14T13:13:19;7.40;;;4.10;;
76848;SDS011;65814;51.134;16.980;2023-06-14T13:15:48;5.60;;;5.00;;
76848;SDS011;65814;51.134;16.980;2023-06-14T13:18:17;8.20;;;4.80;;
76848;SDS011;65814;51.134;16.980;2023-06-14T13:20:45;6.90;;;5.10;;
76848;SDS011;65814;51.134;16.980;2023-06-14T13:23:15;9.20;;;6.80;;
76848;SDS011;65814;51.134;16.980;2023-06-14T13:25:43;8.40;;;6.40;;
76848;SDS011;65814;51.134;16.980;2023-06-14T13:28:12;6.60;;;5.10;;
76848;SDS011;65814;51.134;16.980;2023-06-14T13:30:39;6.30;;;4.60;;
76848;SDS011;65814;51.134;16.980;2023-06-14T13:33:07;7.10;;;4.80;;
76848;SDS011;65814;51.134;16.980;2023-06-14T13:35:35;7.90;;;5.50;;
76848;SDS011;65814;51.134;16.980;2023-06-14T13:38:04;6.10;;;4.70;;
76848;SDS011;65814;51.134;16.980;2023-06-14T13:40:32;7.30;;;5.30;;
76848;SDS011;65814;51.134;16.980;2023-06-14T13:43:00;5.50;;;4.40;;
76848;SDS011;65814;51.134;16.980;2023-06-14T13:45:28;6.20;;;4.70;;
76848;SDS011;65814;51.134;16.980;2023-06-14T13:47:55;6.50;;;5.00;;
76848;SDS011;65814;51.134;16.980;2023-06-14T13:50:24;6.50;;;4.50;;
76848;SDS011;65814;51.134;16.980;2023-06-14T13:52:51;8.70;;;4.30;;
76848;SDS011;65814;51.134;16.980;2023-06-14T13:55:19;9.60;;;4.70;;
76848;SDS011;65814;51.134;16.980;2023-06-14T13:57:48;7.30;;;4.70;;
76848;SDS011;65814;51.134;16.980;2023-06-14T14:00:16;5.30;;;4.00;;
76848;SDS011;65814;51.134;16.980;2023-06-14T14:02:48;9.10;;;5.60;;
76848;SDS011;65814;51.134;16.980;2023-06-14T14:05:18;6.00;;;4.90;;
76848;SDS011;65814;51.134;16.980;2023-06-14T14:07:48;6.10;;;5.00;;
76848;SDS011;65814;51.134;16.980;2023-06-14T14:10:16;5.00;;;4.10;;
76848;SDS011;65814;51.134;16.980;2023-06-14T14:12:44;6.30;;;4.80;;
76848;SDS011;65814;51.134;16.980;2023-06-14T14:15:16;6.00;;;4.40;;
76848;SDS011;65814;51.134;16.980;2023-06-14T14:17:44;6.70;;;4.90;;
76848;SDS011;65814;51.134;16.980;2023-06-14T14:20:12;8.20;;;5.80;;
76848;SDS011;65814;51.134;16.980;2023-06-14T14:22:43;7.40;;;5.60;;
76848;SDS011;65814;51.134;16.980;2023-06-14T14:25:11;6.90;;;4.90;;
76848;SDS011;65814;51.134;16.980;2023-06-14T14:27:39;6.70;;;4.60;;
76848;SDS011;65814;51.134;16.980;2023-06-14T14:30:07;7.30;;;4.20;;
76848;SDS011;65814;51.134;16.980;2023-06-14T14:32:36;8.40;;;5.10;;
76848;SDS011;65814;51.134;16.980;2023-06-14T14:35:04;6.00;;;4.00;;
76848;SDS011;65814;51.134;16.980;2023-06-14T14:37:33;5.30;;;4.60;;
76848;SDS011;65814;51.134;16.980;2023-06-14T14:40:01;4.10;;;3.60;;
76848;SDS011;65814;51.134;16.980;2023-06-14T14:42:31;4.50;;;3.50;;
76848;SDS011;65814;51.134;16.980;2023-06-14T14:44:59;5.30;;;4.10;;
76848;SDS011;65814;51.134;16.980;2023-06-14T14:47:27;5.20;;;3.70;;
76848;SDS011;65814;51.134;16.980;2023-06-14T14:49:55;6.10;;;3.70;;
76848;SDS011;65814;51.134;16.980;2023-06-14T14:52:23;8.00;;;3.60;;
76848;SDS011;65814;51.134;16.980;2023-06-14T14:54:52;7.20;;;3.90;;
76848;SDS011;65814;51.134;16.980;2023-06-14T14:57:21;4.80;;;3.60;;
76848;SDS011;65814;51.134;16.980;2023-06-14T14:59:49;6.50;;;3.70;;
76848;SDS011;65814;51.134;16.980;2023-06-14T15:02:17;5.20;;;4.50;;
76848;SDS011;65814;51.134;16.980;2023-06-14T15:04:45;6.90;;;4.40;;
76848;SDS011;65814;51.134;16.980;2023-06-14T15:07:13;4.80;;;4.30;;